createdAt,value
2017-06-10T00:00:22.801Z,72.43
2017-06-10T00:01:03.394Z,72.63
2017-06-10T00:01:43.997Z,72.63
2017-06-10T00:02:24.605Z,72.91
2017-06-10T00:03:05.199Z,72.63
2017-06-10T00:03:45.798Z,72.33
2017-06-10T00:04:26.420Z,72.43
2017-06-10T00:05:07.024Z,72.43
2017-06-10T00:05:47.612Z,72.72
2017-06-10T00:06:28.208Z,72.53
2017-06-10T00:07:08.798Z,72.63
2017-06-10T00:07:49.384Z,72.72
2017-06-10T00:08:29.997Z,72.33
2017-06-10T00:09:10.583Z,72.53
2017-06-10T00:09:51.178Z,72.53
2017-06-10T00:10:31.784Z,73
2017-06-10T00:11:12.374Z,72.91
2017-06-10T00:11:52.975Z,73.1
2017-06-10T00:12:33.571Z,73
2017-06-10T00:13:14.157Z,72.72
2017-06-10T00:13:54.747Z,72.91
2017-06-10T00:14:35.336Z,72.91
2017-06-10T00:15:15.909Z,72.91
2017-06-10T00:15:56.492Z,73.1
2017-06-10T00:16:37.085Z,73
2017-06-10T00:17:17.692Z,72.91
2017-06-10T00:17:58.296Z,73.1
2017-06-10T00:18:38.888Z,73.1
2017-06-10T00:19:19.460Z,72.91
2017-06-10T00:20:00.050Z,72.91
2017-06-10T00:20:40.625Z,73
2017-06-10T00:21:21.236Z,72.81
2017-06-10T00:22:01.794Z,72.72
2017-06-10T00:22:42.484Z,73
2017-06-10T00:23:23.278Z,72.91
2017-06-10T00:24:03.861Z,73.2
2017-06-10T00:24:44.625Z,72.63
2017-06-10T00:25:25.198Z,72.53
2017-06-10T00:26:05.807Z,73.1
2017-06-10T00:26:46.404Z,73.3
2017-06-10T00:27:27.114Z,73.2
2017-06-10T00:28:07.712Z,72.91
2017-06-10T00:28:48.295Z,73.1
2017-06-10T00:29:28.875Z,72.72
2017-06-10T00:30:09.466Z,72.81
2017-06-10T00:30:50.056Z,73
2017-06-10T00:31:30.644Z,73
2017-06-10T00:32:11.244Z,73.2
2017-06-10T00:32:51.835Z,73
2017-06-10T00:33:32.417Z,73.3
2017-06-10T00:34:12.997Z,72.81
2017-06-10T00:34:53.587Z,73.3
2017-06-10T00:35:34.158Z,73.58
2017-06-10T00:36:14.741Z,73.3
2017-06-10T00:36:55.341Z,73.3
2017-06-10T00:37:35.925Z,73.39
2017-06-10T00:38:16.504Z,73.58
2017-06-10T00:38:57.074Z,73.39
2017-06-10T00:39:37.698Z,72.91
2017-06-10T00:40:18.291Z,73.39
2017-06-10T00:40:58.920Z,72.91
2017-06-10T00:41:39.502Z,73.2
2017-06-10T00:42:20.082Z,73.2
2017-06-10T00:43:00.707Z,73
2017-06-10T00:43:41.601Z,72.81
2017-06-10T00:44:22.187Z,72.91
2017-06-10T00:45:02.767Z,72.91
2017-06-10T00:45:43.339Z,72.63
2017-06-10T00:46:23.925Z,72.63
2017-06-10T00:47:04.508Z,72.33
2017-06-10T00:47:45.113Z,72.63
2017-06-10T00:48:25.704Z,72.24
2017-06-10T00:49:06.284Z,72.81
2017-06-10T00:49:46.867Z,72.63
2017-06-10T00:50:27.441Z,72.72
2017-06-10T00:51:08.037Z,73.2
2017-06-10T00:51:48.631Z,72.63
2017-06-10T00:52:29.243Z,72.72
2017-06-10T00:53:09.833Z,72.91
2017-06-10T00:53:50.485Z,72.91
2017-06-10T00:54:31.071Z,73.1
2017-06-10T00:55:11.648Z,72.43
2017-06-10T00:55:52.235Z,72.33
2017-06-10T00:56:32.835Z,72.63
2017-06-10T00:57:13.422Z,72.53
2017-06-10T00:57:54.001Z,72.63
2017-06-10T00:58:34.575Z,72.53
2017-06-10T00:59:15.166Z,72.53
2017-06-10T00:59:55.748Z,72.81
2017-06-10T01:00:36.329Z,73.1
2017-06-10T01:01:16.920Z,73
2017-06-10T01:01:57.498Z,72.91
2017-06-10T01:02:38.091Z,72.81
2017-06-10T01:03:18.672Z,73.49
2017-06-10T01:03:59.266Z,73.2
2017-06-10T01:04:39.851Z,73.1
2017-06-10T01:05:20.432Z,73.1
2017-06-10T01:06:01.008Z,72.91
2017-06-10T01:06:41.600Z,73
2017-06-10T01:07:22.182Z,73.2
2017-06-10T01:08:02.765Z,73
2017-06-10T01:08:43.350Z,73
2017-06-10T01:09:23.923Z,73.3
2017-06-10T01:10:04.510Z,73.3
2017-06-10T01:10:45.102Z,72.81
2017-06-10T01:11:25.722Z,73.39
2017-06-10T01:12:06.310Z,73.2
2017-06-10T01:12:46.888Z,73.39
2017-06-10T01:13:27.476Z,73.3
2017-06-10T01:14:08.089Z,73.3
2017-06-10T01:14:48.702Z,73.39
2017-06-10T01:15:29.269Z,73.39
2017-06-10T01:16:09.846Z,73.3
2017-06-10T01:16:50.430Z,73.58
2017-06-10T01:17:31.011Z,73.68
2017-06-10T01:18:11.628Z,73.68
2017-06-10T01:18:52.300Z,73.68
2017-06-10T01:19:33.094Z,73.68
2017-06-10T01:20:13.670Z,73.49
2017-06-10T01:20:54.277Z,73.58
2017-06-10T01:21:34.857Z,73.39
2017-06-10T01:22:15.460Z,73.39
2017-06-10T01:22:56.040Z,73.58
2017-06-10T01:23:36.628Z,73.49
2017-06-10T01:24:17.206Z,73.58
2017-06-10T01:24:57.786Z,73.58
2017-06-10T01:25:38.370Z,73.87
2017-06-10T01:26:18.954Z,73.58
2017-06-10T01:26:59.528Z,73.68
2017-06-10T01:27:40.122Z,73.39
2017-06-10T01:28:20.733Z,73.49
2017-06-10T01:29:01.401Z,73.68
2017-06-10T01:29:41.941Z,73.49
2017-06-10T01:30:22.532Z,73.68
2017-06-10T01:31:03.105Z,73.87
2017-06-10T01:31:43.689Z,73.87
2017-06-10T01:32:24.266Z,74.16
2017-06-10T01:33:04.851Z,73.68
2017-06-10T01:33:45.426Z,74.06
2017-06-10T01:34:26.003Z,73.49
2017-06-10T01:35:06.601Z,73.39
2017-06-10T01:35:47.239Z,73.49
2017-06-10T01:36:27.836Z,73.49
2017-06-10T01:37:08.395Z,73.39
2017-06-10T01:37:49.008Z,73.1
2017-06-10T01:38:29.622Z,73.3
2017-06-10T01:39:10.312Z,73.49
2017-06-10T01:39:50.896Z,73.3
2017-06-10T01:40:31.494Z,73.3
2017-06-10T01:41:12.108Z,73.39
2017-06-10T01:41:52.693Z,73.39
2017-06-10T01:42:33.273Z,73.3
2017-06-10T01:43:13.868Z,73.49
2017-06-10T01:43:54.457Z,73.49
2017-06-10T01:44:35.051Z,73.39
2017-06-10T01:45:15.618Z,73.39
2017-06-10T01:45:56.193Z,73.58
2017-06-10T01:46:36.766Z,73.49
2017-06-10T01:47:17.359Z,73.1
2017-06-10T01:47:57.948Z,73.87
2017-06-10T01:48:38.529Z,73.68
2017-06-10T01:49:19.111Z,73.49
2017-06-10T01:49:59.690Z,73.87
2017-06-10T01:50:40.275Z,73.77
2017-06-10T01:51:20.878Z,74.06
2017-06-10T01:52:01.460Z,73.68
2017-06-10T01:52:42.034Z,73.39
2017-06-10T01:53:22.605Z,73.39
2017-06-10T01:54:03.201Z,73.58
2017-06-10T01:54:43.778Z,73.39
2017-06-10T01:55:24.363Z,73.3
2017-06-10T01:56:04.967Z,73.68
2017-06-10T01:56:45.549Z,73.49
2017-06-10T01:57:26.118Z,73.39
2017-06-10T01:58:06.695Z,73.58
2017-06-10T01:58:47.278Z,73.39
2017-06-10T01:59:27.857Z,73.39
2017-06-10T02:00:08.448Z,73.68
2017-06-10T02:00:49.197Z,73.3
2017-06-10T02:01:29.791Z,73.58
2017-06-10T02:02:10.375Z,73.3
2017-06-10T02:02:50.956Z,73.39
2017-06-10T02:03:31.538Z,73.3
2017-06-10T02:04:12.108Z,73.2
2017-06-10T02:04:52.691Z,73.3
2017-06-10T02:05:33.278Z,73.39
2017-06-10T02:06:13.885Z,73.58
2017-06-10T02:06:54.473Z,73.49
2017-06-10T02:07:35.088Z,73.3
2017-06-10T02:08:15.701Z,72.81
2017-06-10T02:08:56.286Z,73.2
2017-06-10T02:09:36.865Z,73.3
2017-06-10T02:10:17.456Z,73.39
2017-06-10T02:10:58.077Z,73.3
2017-06-10T02:11:38.650Z,73.39
2017-06-10T02:12:19.232Z,73.3
2017-06-10T02:12:59.803Z,73.3
2017-06-10T02:13:40.383Z,73.49
2017-06-10T02:14:20.963Z,73.49
2017-06-10T02:15:01.552Z,73.39
2017-06-10T02:15:42.135Z,73.87
2017-06-10T02:16:22.746Z,73.39
2017-06-10T02:17:03.322Z,73.49
2017-06-10T02:17:43.910Z,73.49
2017-06-10T02:18:24.482Z,73.58
2017-06-10T02:19:05.064Z,73.87
2017-06-10T02:19:45.644Z,74.06
2017-06-10T02:20:26.223Z,73.87
2017-06-10T02:21:06.826Z,73.68
2017-06-10T02:21:47.402Z,74.16
2017-06-10T02:22:27.981Z,73.97
2017-06-10T02:23:08.580Z,74.06
2017-06-10T02:23:49.185Z,74.06
2017-06-10T02:24:29.776Z,73.58
2017-06-10T02:25:10.360Z,73.58
2017-06-10T02:25:50.940Z,73.3
2017-06-10T02:26:31.536Z,73.39
2017-06-10T02:27:12.120Z,73.49
2017-06-10T02:27:52.707Z,73.49
2017-06-10T02:28:33.297Z,73.49
2017-06-10T02:29:13.895Z,73.39
2017-06-10T02:29:54.482Z,73.68
2017-06-10T02:30:35.059Z,73.97
2017-06-10T02:31:15.692Z,73.87
2017-06-10T02:31:56.273Z,73.87
2017-06-10T02:32:36.853Z,74.06
2017-06-10T02:33:17.441Z,73.77
2017-06-10T02:33:58.030Z,73.87
2017-06-10T02:34:38.617Z,73.87
2017-06-10T02:35:19.210Z,73.77
2017-06-10T02:35:59.783Z,73.58
2017-06-10T02:36:40.370Z,73.58
2017-06-10T02:37:20.954Z,74.16
2017-06-10T02:38:01.535Z,73.68
2017-06-10T02:38:42.117Z,74.16
2017-06-10T02:39:22.697Z,73.77
2017-06-10T02:40:03.287Z,73.68
2017-06-10T02:40:43.863Z,73.87
2017-06-10T02:41:24.457Z,73.97
2017-06-10T02:42:05.040Z,73.87
2017-06-10T02:42:45.613Z,73.97
2017-06-10T02:43:26.214Z,74.06
2017-06-10T02:44:06.795Z,74.06
2017-06-10T02:44:47.381Z,74.26
2017-06-10T02:45:27.958Z,74.64
2017-06-10T02:46:08.545Z,74.64
2017-06-10T02:46:49.129Z,74.44
2017-06-10T02:47:29.717Z,74.44
2017-06-10T02:48:10.321Z,74.64
2017-06-10T02:48:50.933Z,74.35
2017-06-10T02:49:31.537Z,73.97
2017-06-10T02:50:12.118Z,74.06
2017-06-10T02:50:52.690Z,74.06
2017-06-10T02:51:33.403Z,73.87
2017-06-10T02:52:13.993Z,74.06
2017-06-10T02:52:54.564Z,73.87
2017-06-10T02:53:35.150Z,73.97
2017-06-10T02:54:15.743Z,73.87
2017-06-10T02:54:56.333Z,74.16
2017-06-10T02:55:36.918Z,73.58
2017-06-10T02:56:17.580Z,73.87
2017-06-10T02:56:58.184Z,73.87
2017-06-10T02:57:38.766Z,74.06
2017-06-10T02:58:19.354Z,74.06
2017-06-10T02:58:59.956Z,73.97
2017-06-10T02:59:40.530Z,74.16
2017-06-10T03:00:21.163Z,74.26
2017-06-10T03:01:01.742Z,74.54
2017-06-10T03:01:42.337Z,74.54
2017-06-10T03:02:22.941Z,74.16
2017-06-10T03:03:03.517Z,74.35
2017-06-10T03:03:44.099Z,74.26
2017-06-10T03:04:24.696Z,74.16
2017-06-10T03:05:05.295Z,74.44
2017-06-10T03:05:45.914Z,74.35
2017-06-10T03:06:26.548Z,74.35
2017-06-10T03:07:07.141Z,74.54
2017-06-10T03:07:47.726Z,74.06
2017-06-10T03:08:28.306Z,74.26
2017-06-10T03:09:08.884Z,74.26
2017-06-10T03:09:49.465Z,74.26
2017-06-10T03:10:30.058Z,74.26
2017-06-10T03:11:10.659Z,74.35
2017-06-10T03:11:51.243Z,74.35
2017-06-10T03:12:31.833Z,74.16
2017-06-10T03:13:12.447Z,74.16
2017-06-10T03:13:53.052Z,74.35
2017-06-10T03:14:33.656Z,74.26
2017-06-10T03:15:14.229Z,74.44
2017-06-10T03:15:54.800Z,74.31
2017-06-10T03:16:35.384Z,74.44
2017-06-10T03:17:15.971Z,74.26
2017-06-10T03:17:56.549Z,74.31
2017-06-10T03:18:37.178Z,74.22
2017-06-10T03:19:17.762Z,74.31
2017-06-10T03:19:58.426Z,74.54
2017-06-10T03:20:38.996Z,74.02
2017-06-10T03:21:19.575Z,73.83
2017-06-10T03:22:00.219Z,73.93
2017-06-10T03:22:40.806Z,74.6
2017-06-10T03:23:21.388Z,74.22
2017-06-10T03:24:01.968Z,74.51
2017-06-10T03:24:42.554Z,74.51
2017-06-10T03:25:23.179Z,74.51
2017-06-10T03:26:03.777Z,73.93
2017-06-10T03:26:44.341Z,73.93
2017-06-10T03:27:24.962Z,74.02
2017-06-10T03:28:05.551Z,73.83
2017-06-10T03:28:46.124Z,74.22
2017-06-10T03:29:26.734Z,74.02
2017-06-10T03:30:07.317Z,74.02
2017-06-10T03:30:47.951Z,74.12
2017-06-10T03:31:28.558Z,73.93
2017-06-10T03:32:09.125Z,74.12
2017-06-10T03:32:49.722Z,73.65
2017-06-10T03:33:30.311Z,73.65
2017-06-10T03:34:10.894Z,73.65
2017-06-10T03:34:51.472Z,73.35
2017-06-10T03:35:32.051Z,73.35
2017-06-10T03:36:12.646Z,73.07
2017-06-10T03:36:53.227Z,72.68
2017-06-10T03:37:33.808Z,73.07
2017-06-10T03:38:14.391Z,73.07
2017-06-10T03:38:54.963Z,72.78
2017-06-10T03:39:35.560Z,72.88
2017-06-10T03:40:16.155Z,72.88
2017-06-10T03:40:56.751Z,72.68
2017-06-10T03:41:37.346Z,73.16
2017-06-10T03:42:18.098Z,72.97
2017-06-10T03:42:58.705Z,72.49
2017-06-10T03:43:39.286Z,72.49
2017-06-10T03:44:19.868Z,72.49
2017-06-10T03:45:00.474Z,72.59
2017-06-10T03:45:41.066Z,72.59
2017-06-10T03:46:21.660Z,72.59
2017-06-10T03:47:02.255Z,72.59
2017-06-10T03:47:42.840Z,72.59
2017-06-10T03:48:23.422Z,72.59
2017-06-10T03:49:04.073Z,72.3
2017-06-10T03:49:44.659Z,72.11
2017-06-10T03:50:25.238Z,72.01
2017-06-10T03:51:05.826Z,72.2
2017-06-10T03:51:46.409Z,72.11
2017-06-10T03:52:26.993Z,72.59
2017-06-10T03:53:07.569Z,72.39
2017-06-10T03:53:48.189Z,72.39
2017-06-10T03:54:28.792Z,72.39
2017-06-10T03:55:09.380Z,72.49
2017-06-10T03:55:49.962Z,72.59
2017-06-10T03:56:30.578Z,72.59
2017-06-10T03:57:11.172Z,72.88
2017-06-10T03:57:51.765Z,72.39
2017-06-10T03:58:32.381Z,72.59
2017-06-10T03:59:12.953Z,72.59
2017-06-10T03:59:53.542Z,72.39
2017-06-10T04:00:34.135Z,72.59
2017-06-10T04:01:14.721Z,72.11
2017-06-10T04:01:55.322Z,72.88
2017-06-10T04:02:35.913Z,72.59
2017-06-10T04:03:16.491Z,72.3
2017-06-10T04:03:57.069Z,72.11
2017-06-10T04:04:37.651Z,72.2
2017-06-10T04:05:18.246Z,71.92
2017-06-10T04:05:58.825Z,72.11
2017-06-10T04:06:39.445Z,71.82
2017-06-10T04:07:20.025Z,72.11
2017-06-10T04:08:01.281Z,72.59
2017-06-10T04:08:42.081Z,73.16
2017-06-10T04:09:22.915Z,73.55
2017-06-10T04:10:04.792Z,72.68
2017-06-10T04:10:45.781Z,72.59
2017-06-10T04:11:26.361Z,72.81
2017-06-10T04:12:08.915Z,71.82
2017-06-10T04:12:50.840Z,71.47
2017-06-10T04:13:32.869Z,70.42
2017-06-10T04:14:13.925Z,70.51
2017-06-10T04:14:54.509Z,70.42
2017-06-10T04:15:35.092Z,70.13
2017-06-10T04:16:16.532Z,70
2017-06-10T04:16:56.970Z,69.33
2017-06-10T04:17:37.553Z,69.46
2017-06-10T04:18:18.177Z,69.26
2017-06-10T04:18:58.770Z,69.42
2017-06-10T04:19:39.349Z,69.13
2017-06-10T04:20:19.922Z,69.33
2017-06-10T04:21:00.528Z,68.75
2017-06-10T04:21:41.107Z,68.27
2017-06-10T04:22:21.691Z,68.08
2017-06-10T04:23:02.282Z,68.18
2017-06-10T04:23:42.875Z,68.37
2017-06-10T04:24:23.473Z,70
2017-06-10T04:25:04.184Z,69.13
2017-06-10T04:26:03.129Z,66.55
2017-06-10T04:26:49.443Z,66.45
2017-06-10T04:27:38.225Z,65.88
2017-06-10T04:28:25.165Z,66.35
2017-06-10T04:29:08.075Z,66.26
2017-06-10T04:29:52.095Z,65.97
2017-06-10T04:30:34.683Z,66.16
2017-06-10T04:31:15.541Z,66.06
2017-06-10T04:31:56.592Z,66.35
2017-06-10T04:32:38.842Z,66.55
2017-06-10T04:33:21.685Z,66.74
2017-06-10T04:34:02.408Z,66.45
2017-06-10T04:34:43.051Z,66.35
2017-06-10T04:35:30.297Z,66.64
2017-06-10T04:36:16.371Z,66.55
2017-06-10T04:37:13.233Z,66.83
2017-06-10T04:38:08.105Z,66.83
2017-06-10T04:39:14.676Z,66.64
2017-06-10T04:40:03.211Z,66.74
2017-06-10T04:40:50.306Z,67.12
2017-06-10T04:41:36.746Z,67.5
2017-06-10T04:42:23.977Z,67.5
2017-06-10T04:43:11.091Z,67.41
2017-06-10T04:44:18.315Z,66.64
2017-06-10T04:44:58.938Z,65.88
2017-06-10T04:45:39.542Z,66.45
2017-06-10T04:46:20.130Z,66.06
2017-06-10T04:47:00.709Z,66.26
2017-06-10T04:47:41.301Z,66.64
2017-06-10T04:48:21.886Z,66.64
2017-06-10T04:49:02.473Z,66.83
2017-06-10T04:49:46.563Z,66.64
2017-06-10T04:50:27.145Z,66.16
2017-06-10T04:51:07.735Z,66.8
2017-06-10T04:51:57.966Z,67.12
2017-06-10T04:52:44.027Z,66.51
2017-06-10T04:53:24.601Z,66.64
2017-06-10T04:54:05.202Z,66.93
2017-06-10T04:54:45.805Z,66.83
2017-06-10T04:55:26.409Z,67.12
2017-06-10T04:56:07.002Z,67.32
2017-06-10T04:56:54.306Z,67.69
2017-06-10T04:57:50.840Z,66.26
2017-06-10T04:58:40.795Z,66.06
2017-06-10T04:59:27.351Z,66.83
2017-06-10T05:00:10.903Z,66.93
2017-06-10T05:00:51.907Z,66.74
2017-06-10T05:01:44.426Z,66.45
2017-06-10T05:02:24.866Z,66.35
2017-06-10T05:03:05.452Z,66.06
2017-06-10T05:03:46.981Z,65.88
2017-06-10T05:04:27.679Z,66.16
2017-06-10T05:05:08.653Z,65.97
2017-06-10T05:05:49.640Z,65.78
2017-06-10T05:06:30.218Z,66.06
2017-06-10T05:07:10.812Z,65.68
2017-06-10T05:07:51.396Z,65.97
2017-06-10T05:08:32.222Z,65.78
2017-06-10T05:09:12.808Z,65.68
2017-06-10T05:09:53.491Z,65.59
2017-06-10T05:10:34.066Z,66.06
2017-06-10T05:11:14.703Z,66.16
2017-06-10T05:11:55.299Z,65.97
2017-06-10T05:12:35.874Z,65.49
2017-06-10T05:13:16.502Z,65.88
2017-06-10T05:13:57.716Z,65.88
2017-06-10T05:14:38.295Z,66.45
2017-06-10T05:15:18.872Z,66.45
2017-06-10T05:15:59.456Z,66.55
2017-06-10T05:16:40.049Z,66.35
2017-06-10T05:17:20.636Z,66.35
2017-06-10T05:18:01.222Z,66.74
2017-06-10T05:18:41.797Z,66.77
2017-06-10T05:19:22.392Z,66.96
2017-06-10T05:20:03.035Z,66.64
2017-06-10T05:20:43.616Z,66.1
2017-06-10T05:21:24.198Z,66.29
2017-06-10T05:22:04.776Z,66.39
2017-06-10T05:22:45.371Z,66.39
2017-06-10T05:23:28.094Z,66.58
2017-06-10T05:24:25.497Z,65.52
2017-06-10T05:26:43.533Z,67
2017-06-10T05:28:32.054Z,64.43
2017-06-10T05:29:12.668Z,65.2
2017-06-10T05:29:53.282Z,65.01
2017-06-10T05:30:33.873Z,63.38
2017-06-10T05:31:14.458Z,62.71
2017-06-10T05:31:55.041Z,62.55
2017-06-10T05:32:35.624Z,62.64
2017-06-10T05:33:16.211Z,62.35
2017-06-10T05:33:56.890Z,61.91
2017-06-10T05:34:37.483Z,61.61
2017-06-10T05:35:18.070Z,61.33
2017-06-10T05:36:04.825Z,59.99
2017-06-10T05:36:45.458Z,59.44
2017-06-10T05:37:26.117Z,59.05
2017-06-10T05:38:06.726Z,58.57
2017-06-10T05:38:47.316Z,59.05
2017-06-10T05:39:27.910Z,58.95
2017-06-10T05:40:08.516Z,58.57
2017-06-10T05:40:49.130Z,58.22
2017-06-10T05:41:29.737Z,57.35
2017-06-10T05:42:10.333Z,57.54
2017-06-10T05:42:50.969Z,58.22
2017-06-10T05:43:31.645Z,58.05
2017-06-10T05:44:23.975Z,56.7
2017-06-10T05:45:04.704Z,56.12
2017-06-10T05:45:46.691Z,55.35
2017-06-10T05:46:31.875Z,55.38
2017-06-10T05:47:12.470Z,55.77
2017-06-10T05:47:53.286Z,55.29
2017-06-10T05:48:33.907Z,54.71
2017-06-10T05:49:14.798Z,53.17
2017-06-10T05:49:55.378Z,53.55
2017-06-10T05:50:35.978Z,54.13
2017-06-10T05:51:16.641Z,53.48
2017-06-10T05:51:57.253Z,54.06
2017-06-10T05:52:37.837Z,52.81
2017-06-10T05:53:18.448Z,52.91
2017-06-10T05:53:59.239Z,52.13
2017-06-10T05:54:39.825Z,52.71
2017-06-10T05:55:20.417Z,52.61
2017-06-10T05:56:01.016Z,52.45
2017-06-10T05:56:41.621Z,52.35
2017-06-10T05:57:22.212Z,52.83
2017-06-10T05:58:02.804Z,50.42
2017-06-10T05:58:43.390Z,48.4
2017-06-10T05:59:23.978Z,46.95
2017-06-10T06:00:04.568Z,47.24
2017-06-10T06:00:45.245Z,46.76
2017-06-10T06:01:25.980Z,46.73
2017-06-10T06:02:06.573Z,47.31
2017-06-10T06:02:47.336Z,47.7
2017-06-10T06:03:27.924Z,48.95
2017-06-10T06:04:08.519Z,50.69
2017-06-10T06:04:49.102Z,50.78
2017-06-10T06:05:29.695Z,50.81
2017-06-10T06:06:10.348Z,50.59
2017-06-10T06:06:50.931Z,50.52
2017-06-10T06:07:31.705Z,50.52
2017-06-10T06:08:12.295Z,47.72
2017-06-10T06:08:52.887Z,47.44
2017-06-10T06:09:33.496Z,48.88
2017-06-10T06:10:14.097Z,49.37
2017-06-10T06:10:54.694Z,49.77
2017-06-10T06:11:35.357Z,50.84
2017-06-10T06:12:16.069Z,51.22
2017-06-10T06:12:56.671Z,50.74
2017-06-10T06:13:37.285Z,50.57
2017-06-10T06:14:17.900Z,50.96
2017-06-10T06:14:58.517Z,50.09
2017-06-10T06:15:39.108Z,50.47
2017-06-10T06:16:19.705Z,50.67
2017-06-10T06:17:00.308Z,48.76
2017-06-10T06:17:40.931Z,47.99
2017-06-10T06:18:21.513Z,48.47
2017-06-10T06:19:02.112Z,49.73
2017-06-10T06:19:42.712Z,48.47
2017-06-10T06:20:23.298Z,49.15
2017-06-10T06:21:03.889Z,49.24
2017-06-10T06:21:44.491Z,49.17
2017-06-10T06:22:25.088Z,49.27
2017-06-10T06:23:05.677Z,47.33
2017-06-10T06:23:46.284Z,47.72
2017-06-10T06:24:26.885Z,48.11
2017-06-10T06:25:07.486Z,47.43
2017-06-10T06:25:48.083Z,47.24
2017-06-10T06:26:28.687Z,48.23
2017-06-10T06:27:09.284Z,47.45
2017-06-10T06:27:49.894Z,46.68
2017-06-10T06:28:30.570Z,47.45
2017-06-10T06:29:11.168Z,47.36
2017-06-10T06:29:51.761Z,46.1
2017-06-10T06:30:32.354Z,44.57
2017-06-10T06:31:12.974Z,44.56
2017-06-10T06:31:53.570Z,44.87
2017-06-10T06:32:34.236Z,45.93
2017-06-10T06:33:14.850Z,45.54
2017-06-10T06:33:55.445Z,45.74
2017-06-10T06:34:36.068Z,44.67
2017-06-10T06:35:16.671Z,43.51
2017-06-10T06:35:57.286Z,43.8
2017-06-10T06:36:37.876Z,44.19
2017-06-10T06:37:18.468Z,44.29
2017-06-10T06:37:59.411Z,43.51
2017-06-10T06:38:40.042Z,41.97
2017-06-10T06:39:20.654Z,40.71
2017-06-10T06:40:01.279Z,42.25
2017-06-10T06:40:41.860Z,44.26
2017-06-10T06:41:22.528Z,43.51
2017-06-10T06:42:03.135Z,41.97
2017-06-10T06:42:43.711Z,41.08
2017-06-10T06:43:24.321Z,41.46
2017-06-10T06:44:04.927Z,42.62
2017-06-10T06:44:45.578Z,44.36
2017-06-10T06:45:26.169Z,44.38
2017-06-10T06:46:06.778Z,43.51
2017-06-10T06:46:47.357Z,43.32
2017-06-10T06:47:28.013Z,43.41
2017-06-10T06:48:08.680Z,43.41
2017-06-10T06:48:49.290Z,40.03
2017-06-10T06:49:30.066Z,39.16
2017-06-10T06:50:10.659Z,39.94
2017-06-10T06:50:51.353Z,42.04
2017-06-10T06:51:32.154Z,43.68
2017-06-10T06:52:12.755Z,42.72
2017-06-10T06:52:53.377Z,42.52
2017-06-10T06:53:34.569Z,43.51
2017-06-10T06:54:15.011Z,44.38
2017-06-10T06:54:55.582Z,44.48
2017-06-10T06:55:36.255Z,44.67
2017-06-10T06:56:16.916Z,43.03
2017-06-10T06:56:57.524Z,41
2017-06-10T06:57:38.382Z,41.58
2017-06-10T06:58:20.174Z,42.65
2017-06-10T06:59:00.822Z,42.74
2017-06-10T06:59:41.477Z,43.44
2017-06-10T07:00:22.092Z,42.86
2017-06-10T07:01:02.802Z,41.31
2017-06-10T07:01:43.426Z,40.92
2017-06-10T07:02:24.246Z,40.05
2017-06-10T07:03:04.958Z,39.86
2017-06-10T07:03:45.567Z,41.02
2017-06-10T07:04:26.518Z,41.5
2017-06-10T07:05:07.104Z,42.28
2017-06-10T07:05:47.704Z,41.31
2017-06-10T07:06:28.304Z,40.44
2017-06-10T07:07:09.054Z,41.11
2017-06-10T07:07:49.653Z,40.63
2017-06-10T07:08:30.275Z,38.99
2017-06-10T07:09:10.875Z,38.02
2017-06-10T07:09:51.475Z,37.9
2017-06-10T07:10:32.151Z,40.32
2017-06-10T07:11:12.810Z,40.9
2017-06-10T07:11:53.435Z,41
2017-06-10T07:12:34.031Z,40.53
2017-06-10T07:13:14.695Z,38.68
2017-06-10T07:13:55.311Z,38.29
2017-06-10T07:14:36.424Z,38.2
2017-06-10T07:15:17.046Z,38.95
2017-06-10T07:15:57.666Z,40.4
2017-06-10T07:16:38.370Z,42.52
2017-06-10T07:17:18.967Z,43.4
2017-06-10T07:17:59.574Z,42.83
2017-06-10T07:18:40.417Z,41.87
2017-06-10T07:19:20.999Z,42.25
2017-06-10T07:20:01.662Z,39.45
2017-06-10T07:20:42.258Z,38.78
2017-06-10T07:21:22.845Z,39.06
2017-06-10T07:22:03.460Z,40.3
2017-06-10T07:22:44.140Z,42.62
2017-06-10T07:23:24.930Z,42.24
2017-06-10T07:24:05.552Z,42.24
2017-06-10T07:24:46.187Z,40.81
2017-06-10T07:25:28.031Z,42.62
2017-06-10T07:26:07.873Z,42.65
2017-06-10T07:26:48.485Z,42.65
2017-06-10T07:27:29.079Z,43.03
2017-06-10T07:28:09.680Z,43.41
2017-06-10T07:28:50.287Z,42.07
2017-06-10T07:29:31.219Z,40.92
2017-06-10T07:30:11.816Z,42.08
2017-06-10T07:30:52.430Z,41.31
2017-06-10T07:31:33.096Z,40.92
2017-06-10T07:32:13.701Z,41.7
2017-06-10T07:32:54.314Z,40.83
2017-06-10T07:44:28.080Z,40.84
2017-06-10T07:45:08.684Z,40.67
2017-06-10T07:45:49.273Z,40.67
2017-06-10T07:46:29.877Z,41.16
2017-06-10T07:47:10.473Z,40.09
2017-06-10T07:47:51.068Z,39.41
2017-06-10T07:48:31.699Z,37.87
2017-06-10T07:49:12.292Z,39.32
2017-06-10T07:49:52.930Z,39.9
2017-06-10T07:50:33.547Z,37.57
2017-06-10T07:51:14.122Z,36.9
2017-06-10T07:51:54.721Z,38.83
2017-06-10T07:52:35.351Z,39.9
2017-06-10T07:53:15.974Z,39.97
2017-06-10T07:53:56.600Z,40.38
2017-06-10T07:54:37.200Z,39.9
2017-06-10T07:55:17.798Z,38.35
2017-06-10T07:55:58.405Z,37.57
2017-06-10T07:56:39.014Z,38.83
2017-06-10T07:57:19.600Z,37.96
2017-06-10T07:58:00.216Z,36.51
2017-06-10T07:58:40.813Z,36.1
2017-06-10T07:59:21.415Z,37.65
2017-06-10T08:00:02.025Z,39.29
2017-06-10T08:00:42.608Z,39.29
2017-06-10T08:01:23.259Z,37.55
2017-06-10T08:02:03.885Z,38.89
2017-06-10T08:02:44.529Z,39.59
2017-06-10T08:03:25.124Z,39.97
2017-06-10T08:04:05.710Z,40.44
2017-06-10T08:04:46.459Z,39.88
2017-06-10T08:05:27.053Z,39.29
2017-06-10T08:06:07.718Z,39.97
2017-06-10T08:06:48.301Z,40.36
2017-06-10T08:07:28.892Z,40.56
2017-06-10T08:08:09.514Z,37.94
2017-06-10T08:08:50.102Z,37.55
2017-06-10T08:09:30.711Z,37.55
2017-06-10T08:10:11.356Z,39.2
2017-06-10T08:10:52.004Z,38.91
2017-06-10T08:11:32.614Z,36.49
2017-06-10T08:12:13.258Z,36.3
2017-06-10T08:12:53.884Z,37.36
2017-06-10T08:13:34.494Z,37.36
2017-06-10T08:14:15.096Z,38.13
2017-06-10T08:14:55.702Z,39.2
2017-06-10T08:15:36.296Z,38.91
2017-06-10T08:16:16.905Z,39.2
2017-06-10T08:16:57.517Z,38.43
2017-06-10T08:17:38.131Z,37.55
2017-06-10T08:18:18.780Z,37.07
2017-06-10T08:18:59.410Z,38.91
2017-06-10T08:19:40.183Z,35.81
2017-06-10T08:20:20.782Z,36
2017-06-10T08:21:01.379Z,37.46
2017-06-10T08:21:41.978Z,38.43
2017-06-10T08:22:22.600Z,37.85
2017-06-10T08:23:03.251Z,37.85
2017-06-10T08:23:43.896Z,37.36
2017-06-10T08:24:24.499Z,38.53
2017-06-10T08:25:05.085Z,39.01
2017-06-10T08:25:45.701Z,38.91
2017-06-10T08:26:26.291Z,39.11
2017-06-10T08:27:06.873Z,39.97
2017-06-10T08:27:47.914Z,39.69
2017-06-10T08:28:31.782Z,38.81
2017-06-10T08:29:15.818Z,39.01
2017-06-10T08:29:56.410Z,39.49
2017-06-10T08:30:37.012Z,39.22
2017-06-10T08:31:17.603Z,39.8
2017-06-10T08:31:58.233Z,39.32
2017-06-10T08:32:38.834Z,38.54
2017-06-10T08:33:19.473Z,38.54
2017-06-10T08:34:00.100Z,39.12
2017-06-10T08:34:40.680Z,39.51
2017-06-10T08:35:21.269Z,39.12
2017-06-10T08:36:01.858Z,38.25
2017-06-10T08:36:42.469Z,38.15
2017-06-10T08:37:23.121Z,38.15
2017-06-10T08:38:03.742Z,37.57
2017-06-10T08:38:44.465Z,36.02
2017-06-10T08:39:25.342Z,35.15
2017-06-10T08:40:05.965Z,35.62
2017-06-10T08:40:46.738Z,36.88
2017-06-10T08:41:27.366Z,36.66
2017-06-10T08:42:07.971Z,35.12
2017-06-10T08:42:48.584Z,36.28
2017-06-10T08:43:29.194Z,35.12
2017-06-10T08:44:09.790Z,35.6
2017-06-10T08:44:51.235Z,36.66
2017-06-10T08:45:31.881Z,38.7
2017-06-10T08:46:12.472Z,36.57
2017-06-10T08:46:53.104Z,36.18
2017-06-10T08:47:33.738Z,35.7
2017-06-10T08:48:14.367Z,36.36
2017-06-10T08:48:54.970Z,37.71
2017-06-10T08:49:35.558Z,35.5
2017-06-10T08:50:16.215Z,35.68
2017-06-10T08:50:56.967Z,36.46
2017-06-10T08:51:37.550Z,37.32
2017-06-10T08:52:18.143Z,38.76
2017-06-10T08:52:58.788Z,38.08
2017-06-10T08:53:39.399Z,37.88
2017-06-10T08:54:19.978Z,38.54
2017-06-10T08:55:00.808Z,39.61
2017-06-10T08:55:41.397Z,40.19
2017-06-10T08:56:22.020Z,38.54
2017-06-10T08:57:02.611Z,38.45
2017-06-10T08:57:43.241Z,38.06
2017-06-10T08:58:23.847Z,38.06
2017-06-10T08:59:04.444Z,38.64
2017-06-10T08:59:45.054Z,39.29
2017-06-10T09:00:25.663Z,40.26
2017-06-10T09:01:06.256Z,40.75
2017-06-10T09:01:46.848Z,40.72
2017-06-10T09:02:27.453Z,41.88
2017-06-10T09:03:08.073Z,42.19
2017-06-10T09:03:48.647Z,42.77
2017-06-10T09:04:29.230Z,43.93
2017-06-10T09:05:09.859Z,43.45